Terminal Aerodrome Forecast
Issued by NWS

Home | Current Version | Previous Version | Text Only | Print | Product List | Glossary On
Versions: 1 2 3 4 5 6 7 8 9 10 11 12
000
FTUS45 KFGZ 212330
TAFPGA
TAF
KPGA 212330Z 2200/2224 21010G25KT P6SM SCT200
     FM220400 20010G20KT P6SM FEW060 SCT200
     FM221800 24010G20KT P6SM FEW070=

USA.gov is the U.S. government's official web portal to all federal, state and local government web resources and services.